Time;durP1;ratioP1;P1;durP2;ratioP2;P2;SDS_P1;SDS_P2;PMS_P1;PMS_P2;Temp;Humidity;BMP_temperature;BMP_pressure;BME280_temperature;BME280_humidity;BME280_pressure;Samples;Min_cycle;Max_cycle;Signal;HPM_P1;HPM_P2
2022/05/28 00:01:46;;;;;;;7.28;2.63;;;;;;;26.64;42.22;96387.06;5134338;27;20019;-27
2022/05/28 00:04:13;;;;;;;5.25;2.40;;;;;;;26.60;42.23;96384.59;5134299;28;20025;-27
2022/05/28 00:06:39;;;;;;;5.13;2.60;;;;;;;26.65;42.27;96391.34;5134437;28;20019;-27
2022/05/28 00:09:05;;;;;;;5.97;2.75;;;;;;;26.59;42.27;96385.88;5134186;28;20027;-27
2022/05/28 00:11:36;;;;;;;7.22;2.80;;;;;;;26.63;42.10;96369.63;5116042;28;20022;-27
2022/05/28 00:14:03;;;;;;;6.25;2.67;;;;;;;26.63;41.65;96377.97;5134301;28;20023;-28
2022/05/28 00:16:28;;;;;;;5.18;2.50;;;;;;;26.67;41.42;96367.28;5134310;28;20023;-27
2022/05/28 00:18:55;;;;;;;4.68;2.50;;;;;;;26.63;42.16;96372.41;5134307;28;20080;-27
2022/05/28 00:21:23;;;;;;;5.97;2.50;;;;;;;26.68;41.29;96368.78;5134026;28;20047;-28
2022/05/28 00:23:48;;;;;;;6.00;2.70;;;;;;;26.65;41.40;96367.06;5134628;27;20026;-27
2022/05/28 00:26:14;;;;;;;5.70;2.22;;;;;;;26.63;41.10;96366.84;5138616;27;20117;-28
2022/05/28 00:28:40;;;;;;;5.15;2.45;;;;;;;26.64;40.74;96353.69;5138211;27;20035;-27
2022/05/28 00:31:07;;;;;;;7.60;2.47;;;;;;;26.66;40.85;96367.81;5138415;27;20027;-27
2022/05/28 00:33:33;;;;;;;5.20;2.13;;;;;;;26.68;40.61;96366.00;5138283;27;20019;-28
2022/05/28 00:36:00;;;;;;;5.32;2.42;;;;;;;26.66;40.75;96371.34;5138357;27;20030;-28
2022/05/28 00:38:27;;;;;;;10.55;3.20;;;;;;;26.69;40.18;96364.72;5138242;27;20023;-27
2022/05/28 00:40:55;;;;;;;7.20;2.60;;;;;;;26.64;40.59;96368.34;5138068;27;20160;-27
2022/05/28 00:43:21;;;;;;;6.18;2.97;;;;;;;26.63;40.63;96364.06;5137958;27;20034;-28
2022/05/28 00:45:49;;;;;;;5.95;2.40;;;;;;;26.70;40.23;96363.44;5137943;27;20023;-27
2022/05/28 00:48:21;;;;;;;4.95;2.70;;;;;;;26.68;40.23;96357.66;5138061;27;20019;-27
2022/05/28 00:50:47;;;;;;;9.32;2.65;;;;;;;26.67;40.51;96364.50;5137897;27;20023;-28
2022/05/28 00:53:13;;;;;;;7.57;2.15;;;;;;;26.66;40.62;96359.47;5137909;27;20107;-27
2022/05/28 00:55:39;;;;;;;4.88;2.33;;;;;;;26.63;40.52;96360.53;5119311;27;20030;-28
2022/05/28 00:58:09;;;;;;;7.03;2.25;;;;;;;26.63;40.18;96360.53;5137638;27;20138;-29
2022/05/28 01:00:36;;;;;;;7.50;2.35;;;;;;;26.58;40.69;96351.00;5137646;27;20106;-28
2022/05/28 01:03:11;;;;;;;5.85;2.60;;;;;;;26.55;40.53;96349.31;5137738;27;20049;-27
2022/05/28 01:05:42;;;;;;;6.93;2.83;;;;;;;26.57;40.61;96349.53;5137721;27;20019;-27
2022/05/28 01:08:29;;;;;;;5.25;2.40;;;;;;;26.51;40.71;96346.09;5137690;27;20026;-29
2022/05/28 01:11:19;;;;;;;7.32;2.40;;;;;;;26.51;40.67;96348.13;5137540;27;20482;-28
2022/05/28 01:14:11;;;;;;;7.15;2.83;;;;;;;26.58;40.86;96337.09;5137442;27;20383;-27
2022/05/28 01:16:57;;;;;;;5.80;2.70;;;;;;;26.56;40.45;96338.94;5132279;27;20039;-27
2022/05/28 01:19:26;;;;;;;7.70;2.47;;;;;;;26.52;40.73;96333.69;5119199;27;20023;-28
2022/05/28 01:21:56;;;;;;;7.82;3.00;;;;;;;26.52;40.71;96338.50;5137106;27;20034;-28
2022/05/28 01:24:27;;;;;;;5.97;2.53;;;;;;;26.48;41.29;96338.81;5137222;27;20475;-27
2022/05/28 01:27:07;;;;;;;6.20;2.40;;;;;;;26.45;41.21;96331.56;5137163;27;20156;-28
2022/05/28 01:29:42;;;;;;;6.40;2.92;;;;;;;26.45;41.59;96328.78;5137237;27;20023;-28
2022/05/28 01:32:09;;;;;;;7.25;2.58;;;;;;;26.50;41.04;96325.13;5136967;27;20023;-28
2022/05/28 01:34:36;;;;;;;8.25;2.60;;;;;;;26.46;41.21;96319.88;5137028;27;20023;-28
2022/05/28 01:37:02;;;;;;;6.80;2.65;;;;;;;26.43;41.02;96325.78;5136225;27;20360;-27
2022/05/28 01:39:29;;;;;;;9.15;2.40;;;;;;;26.44;41.21;96330.81;5136898;27;20027;-27
2022/05/28 01:41:55;;;;;;;5.72;2.92;;;;;;;26.31;41.14;96341.19;5136740;27;20051;-28
2022/05/28 01:44:22;;;;;;;6.65;2.47;;;;;;;26.08;40.74;96344.34;5137118;27;20051;-27
2022/05/28 01:46:48;;;;;;;7.68;2.47;;;;;;;26.25;40.67;96332.91;5136981;27;20463;-27
2022/05/28 01:49:16;;;;;;;8.43;2.40;;;;;;;26.30;40.55;96334.88;5136680;27;20076;-27
2022/05/28 01:51:50;;;;;;;6.65;2.30;;;;;;;26.28;40.03;96317.97;5136990;27;20042;-27
2022/05/28 01:54:19;;;;;;;8.63;2.53;;;;;;;26.32;40.63;96309.31;5136916;27;20019;-27
2022/05/28 01:56:47;;;;;;;6.80;2.75;;;;;;;26.25;40.61;96304.38;5136504;27;20105;-27
2022/05/28 01:59:16;;;;;;;7.93;2.40;;;;;;;26.33;40.63;96288.59;5136493;27;20069;-28
2022/05/28 02:01:42;;;;;;;6.32;2.38;;;;;;;26.31;40.58;96282.81;5136439;27;20027;-27
2022/05/28 02:04:09;;;;;;;9.35;2.65;;;;;;;26.27;40.29;96271.22;5136462;27;20467;-27
2022/05/28 02:06:36;;;;;;;11.43;3.22;;;;;;;26.26;40.21;96273.25;5136404;27;20018;-28
2022/05/28 02:09:11;;;;;;;10.07;2.90;;;;;;;26.26;40.55;96262.13;5136276;27;20030;-28
2022/05/28 02:11:49;;;;;;;6.95;2.65;;;;;;;26.21;40.37;96249.06;5136670;27;20041;-28
2022/05/28 02:14:31;;;;;;;6.88;2.35;;;;;;;26.24;40.29;96248.00;5136150;27;20484;-28
2022/05/28 02:17:22;;;;;;;10.10;3.03;;;;;;;26.26;39.83;96239.16;5136444;27;20023;-28
2022/05/28 02:20:21;;;;;;;6.05;2.30;;;;;;;26.25;39.59;96234.88;5136458;27;20045;-27
2022/05/28 02:23:06;;;;;;;6.50;2.85;;;;;;;26.26;39.28;96239.16;5136110;27;20385;-27
2022/05/28 02:25:37;;;;;;;10.75;2.65;;;;;;;26.25;39.39;96234.88;5136214;27;20110;-28
2022/05/28 02:28:05;;;;;;;7.38;2.40;;;;;;;26.28;39.57;96237.34;5136112;27;20023;-28
2022/05/28 02:30:32;;;;;;;8.88;2.55;;;;;;;26.25;39.31;96240.44;5135864;27;20123;-28
2022/05/28 02:33:06;;;;;;;8.05;2.08;;;;;;;26.25;39.09;96234.88;5136261;27;20110;-27
2022/05/28 02:35:32;;;;;;;6.38;2.55;;;;;;;26.28;39.34;96231.81;5135875;27;20027;-27
2022/05/28 02:37:58;;;;;;;8.10;2.53;;;;;;;26.20;39.12;96225.38;5135812;27;20352;-27
2022/05/28 02:40:24;;;;;;;6.13;2.05;;;;;;;26.28;38.92;96225.50;5135775;27;20425;-27
2022/05/28 02:42:49;;;;;;;8.10;1.98;;;;;;;26.27;38.68;96221.94;5135685;27;20019;-27
2022/05/28 02:45:16;;;;;;;6.13;2.17;;;;;;;26.25;39.09;96223.75;5135515;27;20052;-27
2022/05/28 02:47:42;;;;;;;5.70;2.13;;;;;;;26.19;39.05;96223.88;5134609;27;20031;-27
2022/05/28 02:50:09;;;;;;;7.05;2.65;;;;;;;26.22;38.62;96224.81;5135621;27;20122;-27
2022/05/28 02:52:35;;;;;;;5.95;2.47;;;;;;;26.19;38.54;96223.13;5135508;27;20019;-27
2022/05/28 02:55:01;;;;;;;7.53;2.20;;;;;;;26.12;39.28;96230.06;5135525;27;20039;-27
2022/05/28 02:57:27;;;;;;;7.78;2.50;;;;;;;26.19;38.69;96234.25;5135274;27;20509;-36
2022/05/28 02:59:52;;;;;;;8.32;2.60;;;;;;;26.08;39.47;96230.41;5135507;27;20092;-35
2022/05/28 03:02:17;;;;;;;7.50;2.25;;;;;;;26.09;39.19;96217.97;5135345;27;20412;-35
2022/05/28 03:04:43;;;;;;;6.82;2.45;;;;;;;26.15;39.44;96231.03;5135546;27;20073;-35
2022/05/28 03:07:08;;;;;;;6.45;2.28;;;;;;;26.13;39.67;96226.00;5135358;27;20015;-35
2022/05/28 03:09:34;;;;;;;6.20;2.38;;;;;;;26.10;39.54;96232.63;5135768;27;20026;-35
2022/05/28 03:12:00;;;;;;;7.47;2.20;;;;;;;26.01;39.75;96239.38;5135015;27;20058;-35
2022/05/28 03:14:25;;;;;;;5.63;2.45;;;;;;;25.86;40.34;96246.72;5135091;27;20377;-35
2022/05/28 03:16:52;;;;;;;5.10;2.45;;;;;;;25.85;40.51;96251.53;5135230;27;20023;-35
2022/05/28 03:19:18;;;;;;;5.18;2.70;;;;;;;25.90;40.62;96238.81;5134986;27;20458;-35
2022/05/28 03:21:44;;;;;;;7.68;2.38;;;;;;;25.89;40.76;96226.97;5134895;27;20072;-35
2022/05/28 03:24:10;;;;;;;6.93;2.55;;;;;;;25.87;40.75;96232.31;5134824;27;20029;-36
2022/05/28 03:26:36;;;;;;;8.82;3.05;;;;;;;25.96;41.00;96237.47;5134796;27;20105;-35
2022/05/28 03:29:04;;;;;;;9.63;3.30;;;;;;;25.94;41.05;96226.13;5134796;27;20352;-35
2022/05/28 03:31:29;;;;;;;10.57;2.65;;;;;;;25.95;41.25;96216.50;5134836;27;20058;-35
2022/05/28 03:33:56;;;;;;;13.07;2.90;;;;;;;26.00;40.70;96215.63;5134911;27;20058;-35
2022/05/28 03:36:23;;;;;;;6.93;2.40;;;;;;;26.02;40.73;96210.31;5134647;27;20102;-35
2022/05/28 03:38:49;;;;;;;8.70;2.80;;;;;;;25.99;41.20;96193.94;5135137;27;20079;-36
2022/05/28 03:41:14;;;;;;;7.28;2.50;;;;;;;25.95;41.18;96194.28;5134751;27;20026;-35
2022/05/28 03:43:40;;;;;;;9.02;2.42;;;;;;;25.94;41.35;96192.03;5134621;27;20049;-35
2022/05/28 03:46:18;;;;;;;8.27;2.78;;;;;;;25.96;41.22;96189.47;5134635;27;20049;-35
2022/05/28 03:48:44;;;;;;;9.05;2.92;;;;;;;25.95;41.29;96177.59;5116137;27;20044;-35
2022/05/28 03:51:09;;;;;;;11.18;3.00;;;;;;;25.95;41.17;96176.84;5134687;27;20534;-35
2022/05/28 03:53:35;;;;;;;8.25;2.80;;;;;;;25.98;40.97;96182.06;5134363;27;20378;-36
2022/05/28 03:56:00;;;;;;;8.40;3.30;;;;;;;26.00;40.70;96178.75;5134715;27;20106;-35
2022/05/28 03:58:26;;;;;;;8.40;2.53;;;;;;;25.92;41.02;96170.34;5133962;27;20043;-35
2022/05/28 04:00:51;;;;;;;8.55;2.60;;;;;;;25.96;40.74;96167.25;5134577;27;20382;-35
2022/05/28 04:03:16;;;;;;;6.70;2.22;;;;;;;25.97;40.84;96166.69;5134486;27;20019;-35
2022/05/28 04:05:42;;;;;;;6.70;2.40;;;;;;;25.95;40.61;96152.59;5134434;28;20034;-35
2022/05/28 04:08:08;;;;;;;6.07;2.75;;;;;;;25.99;40.28;96150.22;5134465;28;20025;-35
2022/05/28 04:10:34;;;;;;;7.63;2.50;;;;;;;25.94;40.17;96134.44;5134279;28;20028;-35
2022/05/28 04:12:59;;;;;;;5.43;2.25;;;;;;;25.94;40.13;96131.66;5134440;28;20374;-35
2022/05/28 04:15:28;;;;;;;6.70;2.78;;;;;;;25.91;40.00;96129.94;5134404;28;20447;-35
2022/05/28 04:17:54;;;;;;;8.80;2.45;;;;;;;25.97;39.81;96133.34;5134292;28;20019;-35
2022/05/28 04:20:19;;;;;;;11.90;2.65;;;;;;;25.93;39.58;96123.84;5134228;28;20027;-35
2022/05/28 04:22:45;;;;;;;4.88;2.28;;;;;;;25.91;39.88;96131.97;5134148;28;20026;-35
2022/05/28 04:25:10;;;;;;;5.68;2.42;;;;;;;25.98;39.16;96131.31;5134023;28;20034;-36
2022/05/28 04:27:40;;;;;;;8.07;2.30;;;;;;;25.97;39.24;96125.00;5134269;28;20034;-35
2022/05/28 04:30:06;;;;;;;7.60;2.50;;;;;;;25.94;39.11;96131.66;5128935;28;20018;-35
2022/05/28 04:32:31;;;;;;;8.02;2.30;;;;;;;25.91;39.14;96127.16;5122673;28;20118;-35
2022/05/28 04:34:57;;;;;;;6.68;2.40;;;;;;;25.89;39.00;96126.94;5132109;28;20102;-35
2022/05/28 04:37:22;;;;;;;4.25;2.30;;;;;;;25.95;38.75;96122.03;5113014;28;20038;-35
2022/05/28 04:39:48;;;;;;;4.97;2.33;;;;;;;25.93;38.82;96118.31;5111583;28;20019;-35
2022/05/28 04:42:13;;;;;;;9.70;2.58;;;;;;;25.94;39.19;96119.78;5111153;28;20039;-35
2022/05/28 04:44:39;;;;;;;8.85;3.83;;;;;;;25.87;38.94;96121.19;5111452;28;20028;-35
2022/05/28 04:47:04;;;;;;;6.00;2.25;;;;;;;25.91;38.49;96121.59;5109995;28;20039;-35
2022/05/28 04:49:30;;;;;;;6.32;2.75;;;;;;;25.93;38.35;96115.53;5129831;28;20031;-35
2022/05/28 04:51:55;;;;;;;6.80;2.15;;;;;;;25.91;38.54;96116.06;5131978;28;20022;-35
2022/05/28 04:54:21;;;;;;;5.13;2.20;;;;;;;25.93;38.53;96126.63;5131791;28;20027;-35
2022/05/28 04:56:46;;;;;;;6.63;2.60;;;;;;;25.93;38.39;96135.72;5130208;28;20042;-35
2022/05/28 04:59:12;;;;;;;7.78;2.22;;;;;;;25.80;38.63;96140.53;5111502;28;20027;-35
2022/05/28 05:01:38;;;;;;;7.18;2.25;;;;;;;25.70;39.10;96135.41;5111227;28;20032;-35
2022/05/28 05:04:04;;;;;;;7.50;2.42;;;;;;;25.78;39.17;96135.50;5111294;28;20031;-35
2022/05/28 05:06:30;;;;;;;7.88;2.10;;;;;;;25.79;39.13;96137.00;5111158;28;20418;-35
2022/05/28 05:08:55;;;;;;;4.82;2.20;;;;;;;25.83;38.95;96134.66;5110164;28;20023;-35
2022/05/28 05:11:21;;;;;;;10.00;2.78;;;;;;;25.69;39.40;96138.72;5096304;28;20104;-35
2022/05/28 05:13:47;;;;;;;7.28;2.28;;;;;;;25.76;39.85;96138.81;5094378;28;20030;-35
2022/05/28 05:16:17;;;;;;;5.53;2.22;;;;;;;25.71;39.90;96136.91;5095930;28;20032;-35
2022/05/28 05:18:42;;;;;;;4.75;2.03;;;;;;;25.72;39.99;96132.81;5094331;28;20024;-35
2022/05/28 05:21:11;;;;;;;7.03;2.78;;;;;;;25.76;40.11;96140.84;5093239;28;20375;-35
2022/05/28 05:23:40;;;;;;;8.75;2.50;;;;;;;25.78;39.94;96141.06;5094454;28;20036;-35
2022/05/28 05:26:16;;;;;;;6.72;2.20;;;;;;;25.78;40.55;96138.28;5113068;28;20023;-35
2022/05/28 05:28:41;;;;;;;6.22;2.10;;;;;;;25.76;40.82;96132.50;5114784;28;20051;-36
2022/05/28 05:31:07;;;;;;;5.53;2.15;;;;;;;25.77;41.14;96128.47;5114371;28;20423;-35
2022/05/28 05:33:32;;;;;;;8.35;2.78;;;;;;;25.77;41.08;96128.47;5115042;28;20512;-35
2022/05/28 05:35:58;;;;;;;8.93;3.10;;;;;;;25.76;41.08;96136.03;5114493;28;20027;-35
2022/05/28 05:38:23;;;;;;;8.70;2.17;;;;;;;25.74;41.29;96135.06;5114598;28;20020;-35
2022/05/28 05:40:52;;;;;;;7.43;3.22;;;;;;;25.79;41.36;96127.91;5114590;28;20135;-35
2022/05/28 05:43:18;;;;;;;6.82;2.72;;;;;;;25.77;41.46;96128.47;5114281;28;20019;-35
2022/05/28 05:45:55;;;;;;;6.95;2.47;;;;;;;25.74;41.50;96127.50;5114262;28;20027;-35
2022/05/28 05:48:22;;;;;;;8.27;2.60;;;;;;;25.73;41.94;96130.78;5112740;28;20333;-35
2022/05/28 05:50:48;;;;;;;5.28;2.30;;;;;;;25.75;41.70;96129.00;5114166;27;20023;-35
2022/05/28 05:53:13;;;;;;;7.65;2.33;;;;;;;25.80;41.73;96132.94;5113966;28;20023;-36
2022/05/28 05:55:39;;;;;;;8.68;3.03;;;;;;;25.73;42.07;96128.78;5114260;28;20051;-35
2022/05/28 05:58:05;;;;;;;8.88;2.95;;;;;;;25.72;42.10;96137.63;5126734;27;20049;-36
2022/05/28 06:00:31;;;;;;;8.88;2.75;;;;;;;25.67;42.70;96135.72;5134500;27;20470;-36
2022/05/28 06:02:56;;;;;;;7.07;2.17;;;;;;;25.74;42.26;96140.63;5134571;27;20027;-35
2022/05/28 06:05:22;;;;;;;6.93;2.90;;;;;;;25.68;42.90;96140.75;5134339;27;20027;-35
2022/05/28 06:07:47;;;;;;;9.48;2.63;;;;;;;25.67;42.52;96144.06;5134626;27;20023;-35
2022/05/28 06:10:13;;;;;;;8.70;2.97;;;;;;;25.68;42.84;96142.78;5134598;27;20023;-35
2022/05/28 06:12:39;;;;;;;7.18;2.45;;;;;;;25.69;42.91;96142.25;5134618;27;20015;-35
2022/05/28 06:15:06;;;;;;;8.70;3.05;;;;;;;25.70;42.81;96140.97;5134558;27;20030;-35
2022/05/28 06:17:34;;;;;;;8.07;2.55;;;;;;;25.73;43.10;96141.91;5133897;27;20145;-36
2022/05/28 06:20:00;;;;;;;13.75;2.88;;;;;;;25.72;42.96;96143.19;5116012;27;20740;-35
2022/05/28 06:22:26;;;;;;;5.80;2.40;;;;;;;25.73;42.95;96136.34;5133855;27;20459;-35
2022/05/28 06:24:51;;;;;;;8.25;2.58;;;;;;;25.69;42.72;96144.28;5133907;27;20023;-36
2022/05/28 06:27:17;;;;;;;7.43;2.63;;;;;;;25.72;42.94;96138.38;5134065;27;20031;-35
2022/05/28 06:29:42;;;;;;;7.47;2.38;;;;;;;25.76;42.67;96138.81;5133755;27;20019;-35
2022/05/28 06:32:08;;;;;;;7.70;2.75;;;;;;;25.76;42.10;96138.06;5133856;27;20049;-35
2022/05/28 06:34:34;;;;;;;10.35;2.88;;;;;;;25.71;42.34;96142.47;5133993;27;20023;-35
2022/05/28 06:37:00;;;;;;;6.45;2.78;;;;;;;25.75;42.16;96150.47;5134095;27;20015;-35
2022/05/28 06:39:25;;;;;;;7.18;2.60;;;;;;;25.72;42.12;96143.94;5134079;27;20023;-35
2022/05/28 06:41:51;;;;;;;9.20;2.83;;;;;;;25.74;42.17;96148.97;5133268;27;20050;-35
2022/05/28 06:44:17;;;;;;;4.45;2.63;;;;;;;25.77;41.92;96139.56;5133986;27;20023;-36
2022/05/28 06:46:42;;;;;;;5.65;2.63;;;;;;;25.72;41.79;96137.63;5115255;27;20053;-35
2022/05/28 06:49:07;;;;;;;5.88;2.30;;;;;;;25.70;42.02;96135.41;5131907;27;20023;-35
2022/05/28 06:51:33;;;;;;;7.05;2.45;;;;;;;25.74;41.70;96130.25;5133786;27;20019;-35
2022/05/28 06:53:59;;;;;;;5.55;2.45;;;;;;;25.67;42.11;96132.94;5133231;27;20064;-35
2022/05/28 06:56:24;;;;;;;4.90;2.50;;;;;;;25.75;41.86;96136.56;5133731;27;20385;-36
2022/05/28 06:58:50;;;;;;;6.50;2.60;;;;;;;25.75;41.53;96129.00;5116433;27;20078;-35
2022/05/28 07:01:17;;;;;;;8.65;2.90;;;;;;;25.73;41.89;96125.25;5112982;27;20066;-35
2022/05/28 07:03:43;;;;;;;5.40;2.20;;;;;;;25.71;41.81;96123.03;5112990;28;20483;-35
2022/05/28 07:06:10;;;;;;;5.85;2.67;;;;;;;25.72;41.44;96127.28;5112851;28;20024;-35
2022/05/28 07:08:35;;;;;;;4.80;2.05;;;;;;;25.51;41.61;96120.09;5112726;28;20383;-35
2022/05/28 07:11:02;;;;;;;8.15;2.50;;;;;;;25.54;40.74;96116.25;5111548;28;20024;-35
2022/05/28 07:13:29;;;;;;;7.55;2.33;;;;;;;25.53;40.87;96114.75;5112687;28;20352;-35
2022/05/28 07:15:54;;;;;;;5.13;2.20;;;;;;;25.69;41.18;96116.50;5112444;28;20034;-35
2022/05/28 07:18:21;;;;;;;8.27;2.83;;;;;;;25.73;41.08;96123.22;5112299;27;20046;-35
2022/05/28 07:20:47;;;;;;;7.13;2.80;;;;;;;25.71;40.14;96111.91;5112216;28;20734;-35
2022/05/28 07:23:24;;;;;;;5.45;2.45;;;;;;;25.80;40.88;96110.72;5112565;28;20034;-35
2022/05/28 07:25:57;;;;;;;5.22;2.30;;;;;;;25.69;41.00;96103.38;5095660;28;20028;-36
2022/05/28 07:28:27;;;;;;;3.22;2.10;;;;;;;25.75;40.74;96108.78;5090845;28;20568;-36
2022/05/28 07:31:09;;;;;;;4.45;2.30;;;;;;;25.72;40.81;96107.81;5091738;28;20106;-35
2022/05/28 07:33:37;;;;;;;5.43;2.13;;;;;;;25.74;41.10;96105.28;5091202;28;20031;-36
2022/05/28 07:36:06;;;;;;;5.65;2.40;;;;;;;25.74;41.02;96105.28;5092025;28;20028;-35
2022/05/28 07:38:32;;;;;;;5.70;2.35;;;;;;;25.79;40.70;96097.38;5091834;28;20031;-36
2022/05/28 07:41:05;;;;;;;6.07;2.13;;;;;;;25.70;40.45;96095.78;5091857;28;20606;-35
2022/05/28 07:43:31;;;;;;;5.32;2.10;;;;;;;25.80;40.47;96093.31;5091751;28;20034;-35
2022/05/28 07:45:57;;;;;;;5.82;2.08;;;;;;;25.80;40.03;96088.50;5091978;28;20372;-35
2022/05/28 07:48:23;;;;;;;6.25;2.20;;;;;;;25.81;40.44;96083.69;5090195;28;20028;-36
2022/05/28 07:50:48;;;;;;;4.60;2.08;;;;;;;25.78;40.37;96082.72;5091909;28;20110;-35
2022/05/28 07:53:14;;;;;;;7.05;2.70;;;;;;;25.80;40.15;96077.41;5091530;28;20024;-36
2022/05/28 07:55:40;;;;;;;6.90;2.53;;;;;;;25.84;39.96;96079.84;5091626;28;20039;-35
2022/05/28 07:58:14;;;;;;;6.88;2.42;;;;;;;25.85;40.01;96079.28;5102210;28;20162;-35
2022/05/28 08:00:49;;;;;;;4.80;2.30;;;;;;;25.91;39.97;96081.97;5111923;28;20019;-36
2022/05/28 08:03:16;;;;;;;6.75;2.33;;;;;;;25.91;39.48;96081.97;5112009;28;20102;-35
2022/05/28 08:05:45;;;;;;;6.38;2.40;;;;;;;25.87;39.47;96071.16;5111552;28;20030;-35
2022/05/28 08:08:11;;;;;;;3.70;1.95;;;;;;;25.92;39.63;96075.88;5111295;28;20508;-35
2022/05/28 08:10:37;;;;;;;12.52;2.78;;;;;;;25.47;39.09;96073.22;5110877;28;20020;-34
2022/05/28 08:13:06;;;;;;;6.03;2.17;;;;;;;25.63;39.27;96079.75;5111791;28;20348;-33
2022/05/28 08:15:34;;;;;;;5.38;1.67;;;;;;;25.84;38.55;96072.25;5124120;27;20110;-33
2022/05/28 08:18:00;;;;;;;8.52;2.20;;;;;;;25.84;38.85;96077.78;5116182;28;20015;-33
2022/05/28 08:23:10;;;;;;;9.02;2.25;;;;;;;25.86;38.39;96066.91;5134349;27;20075;-33
2022/05/28 08:25:37;;;;;;;6.20;2.28;;;;;;;25.88;38.58;96066.38;5134080;27;20526;-33
2022/05/28 08:28:03;;;;;;;8.02;2.45;;;;;;;25.65;42.46;96060.53;5134436;27;20390;-31
2022/05/28 08:30:29;;;;;;;9.10;2.65;;;;;;;25.38;41.21;96068.09;5132878;27;20027;-34
2022/05/28 08:32:54;;;;;;;10.40;2.53;;;;;;;25.75;40.44;96056.78;5133423;27;20030;-34
2022/05/28 08:35:21;;;;;;;7.35;2.20;;;;;;;25.82;40.52;96058.16;5133060;27;20020;-34
2022/05/28 08:37:47;;;;;;;7.25;2.15;;;;;;;25.88;39.96;96061.56;5133611;27;20098;-34
2022/05/28 08:40:14;;;;;;;5.72;2.50;;;;;;;25.89;40.10;96062.31;5133903;27;20080;-34
2022/05/28 08:42:41;;;;;;;9.43;2.17;;;;;;;25.87;40.02;96060.06;5134017;27;20023;-33
2022/05/28 08:45:07;;;;;;;9.98;1.85;;;;;;;25.85;40.25;96059.84;5134038;27;20105;-33
2022/05/28 08:47:38;;;;;;;9.02;3.08;;;;;;;25.87;40.55;96054.50;5137295;27;20027;-34
2022/05/28 08:50:07;;;;;;;8.85;2.70;;;;;;;25.81;40.39;96053.88;5138015;27;20035;-35
2022/05/28 08:53:02;;;;;;;7.18;2.20;;;;;;;25.79;40.29;96055.69;5138088;27;20015;-35
2022/05/28 08:55:31;;;;;;;5.82;2.17;;;;;;;25.83;40.10;96053.34;5130575;27;20118;-33
2022/05/28 08:58:11;;;;;;;7.57;2.35;;;;;;;25.83;39.76;96053.34;5137563;27;20448;-34
2022/05/28 09:00:44;;;;;;;6.25;2.65;;;;;;;25.77;39.96;96045.88;5137828;27;20108;-34
2022/05/28 09:03:26;;;;;;;8.93;2.60;;;;;;;25.78;40.01;96046.63;5137849;27;20474;-34
2022/05/28 09:05:54;;;;;;;6.72;2.38;;;;;;;25.77;40.18;96050.69;5137573;27;20027;-34
2022/05/28 09:08:30;;;;;;;4.80;2.05;;;;;;;25.77;40.26;96051.44;5137670;27;20027;-33
2022/05/28 09:11:02;;;;;;;9.52;2.88;;;;;;;25.92;40.82;96044.56;5137618;27;20023;-32
2022/05/28 09:13:50;;;;;;;13.75;3.50;;;;;;;26.06;40.72;96043.25;5137749;27;20011;-34
2022/05/28 09:16:27;;;;;;;11.38;3.22;;;;;;;25.70;41.21;96043.00;5137442;27;20027;-33
2022/05/28 09:18:56;;;;;;;10.85;2.70;;;;;;;25.91;40.71;96038.25;5136856;27;20059;-33
2022/05/28 09:21:22;;;;;;;12.02;2.70;;;;;;;25.90;40.87;96042.31;5137484;27;20120;-34
2022/05/28 09:24:01;;;;;;;14.15;3.42;;;;;;;25.81;40.86;96040.00;5137445;27;20148;-34
2022/05/28 09:26:59;;;;;;;11.75;3.25;;;;;;;25.85;40.98;96029.28;5136518;27;20454;-33
2022/05/28 09:29:43;;;;;;;12.65;2.70;;;;;;;25.88;40.81;96028.22;5136256;27;20416;-34
2022/05/28 09:32:33;;;;;;;8.25;2.60;;;;;;;25.91;41.08;96027.16;5137138;27;20039;-33
2022/05/28 09:35:36;;;;;;;9.43;2.45;;;;;;;25.90;40.64;96028.44;5137110;27;20061;-33
2022/05/28 09:38:01;;;;;;;9.90;2.80;;;;;;;25.86;40.80;96024.47;5137001;27;20023;-33
2022/05/28 09:40:39;;;;;;;10.25;2.70;;;;;;;25.90;40.69;96025.66;5136985;27;20015;-33
2022/05/28 09:43:16;;;;;;;9.30;2.80;;;;;;;25.88;40.85;96021.91;5136779;27;20023;-34
2022/05/28 09:45:54;;;;;;;13.48;3.08;;;;;;;25.85;40.91;96018.19;5136991;27;20056;-33
2022/05/28 09:48:24;;;;;;;13.52;3.13;;;;;;;25.87;40.79;96014.88;5136879;27;20027;-33
2022/05/28 09:50:50;;;;;;;10.93;2.60;;;;;;;25.92;40.82;96020.31;5136739;27;20034;-33
2022/05/28 09:56:36;;;;;;;12.60;3.08;;;;;;;25.89;40.48;96010.25;5136336;27;20034;-33
2022/05/28 09:59:16;;;;;;;10.68;3.38;;;;;;;25.82;40.66;96010.94;5136486;27;20560;-33
2022/05/28 10:01:52;;;;;;;9.68;2.60;;;;;;;25.80;40.71;96009.97;5136813;27;20424;-33
2022/05/28 10:04:30;;;;;;;7.40;2.53;;;;;;;25.88;40.48;95999.69;5136791;27;20391;-34
2022/05/28 10:06:59;;;;;;;11.40;2.47;;;;;;;25.91;39.94;95993.81;5137075;27;20046;-33
2022/05/28 10:09:31;;;;;;;10.48;2.45;;;;;;;25.90;40.43;95994.34;5136394;27;20031;-33
2022/05/28 10:12:09;;;;;;;8.70;2.53;;;;;;;25.81;40.41;95998.34;5136264;27;20022;-33
2022/05/28 10:14:34;;;;;;;11.43;2.63;;;;;;;25.91;39.88;95993.81;5122149;27;20019;-34
2022/05/28 10:17:03;;;;;;;8.43;2.60;;;;;;;25.92;40.00;95997.34;5114766;28;20440;-34
2022/05/28 10:19:43;;;;;;;8.02;2.05;;;;;;;25.92;39.82;95994.56;5115568;28;20085;-33
2022/05/28 10:22:16;;;;;;;10.20;2.50;;;;;;;25.95;39.50;95994.22;5115632;28;20055;-34
2022/05/28 10:24:46;;;;;;;10.10;2.90;;;;;;;25.95;39.65;95991.47;5115695;28;20077;-33
2022/05/28 10:27:33;;;;;;;8.45;2.90;;;;;;;26.02;39.01;95981.69;5115643;28;20463;-33
2022/05/28 10:30:04;;;;;;;11.45;2.88;;;;;;;25.97;39.11;95986.09;5097299;28;20054;-33
2022/05/28 10:32:37;;;;;;;9.82;3.38;;;;;;;25.92;38.51;95986.97;5115946;28;20098;-33
2022/05/28 10:35:05;;;;;;;11.02;2.75;;;;;;;26.00;38.43;95978.69;5115743;28;20016;-33
2022/05/28 10:37:31;;;;;;;10.55;2.95;;;;;;;26.01;38.44;95986.50;5115197;28;20035;-33
2022/05/28 10:40:11;;;;;;;10.23;2.92;;;;;;;26.05;38.09;95980.63;5115309;28;20147;-33
2022/05/28 10:42:37;;;;;;;8.50;2.75;;;;;;;26.02;38.16;95970.56;5115455;28;20519;-33
2022/05/28 10:45:05;;;;;;;8.38;2.90;;;;;;;26.00;37.78;95975.94;5115328;28;20051;-33
2022/05/28 10:48:10;;;;;;;10.88;2.85;;;;;;;26.00;37.84;95968.34;5115129;28;20020;-33
2022/05/28 10:51:01;;;;;;;10.65;2.80;;;;;;;26.05;37.39;95969.50;5115007;28;20020;-33
2022/05/28 10:53:58;;;;;;;12.27;2.70;;;;;;;26.02;37.23;95963.00;5101410;28;20111;-34
2022/05/28 10:56:32;;;;;;;8.50;2.60;;;;;;;26.01;37.34;95963.53;5115015;28;20051;-33
2022/05/28 10:59:29;;;;;;;9.60;2.72;;;;;;;26.01;36.87;95964.28;5114892;28;20073;-33
2022/05/28 11:02:03;;;;;;;8.43;2.80;;;;;;;25.93;36.98;95962.72;5114711;28;20458;-34
2022/05/28 11:05:01;;;;;;;11.80;3.10;;;;;;;25.98;36.69;95959.03;5115122;28;20042;-33
2022/05/28 11:07:52;;;;;;;8.63;2.53;;;;;;;26.03;36.78;95950.59;5096596;28;20094;-33
2022/05/28 11:10:46;;;;;;;7.47;2.60;;;;;;;26.03;36.21;95947.81;5114038;28;20104;-34
2022/05/28 11:13:49;;;;;;;8.25;2.70;;;;;;;26.07;35.88;95942.66;5109570;28;20114;-33
2022/05/28 11:16:59;;;;;;;9.45;2.92;;;;;;;26.03;35.77;95935.94;5114960;28;20019;-33
2022/05/28 11:19:27;;;;;;;8.50;2.50;;;;;;;28.24;31.88;95930.31;5012141;28;20040;-30
2022/05/28 11:22:05;;;;;;;14.63;3.13;;;;;;;28.88;31.58;95937.56;5011425;28;20088;-34
2022/05/28 11:25:04;;;;;;;11.95;3.13;;;;;;;29.07;31.16;95928.00;5012033;28;20746;-35
2022/05/28 11:27:48;;;;;;;9.05;2.55;;;;;;;29.16;31.24;95930.25;5016846;28;20150;-35
2022/05/28 11:30:32;;;;;;;10.20;2.97;;;;;;;29.24;31.42;95923.31;5028886;28;20037;-34
2022/05/28 11:33:11;;;;;;;9.68;2.78;;;;;;;29.34;31.59;95911.53;5029160;28;20026;-34
2022/05/28 11:35:47;;;;;;;5.53;2.40;;;;;;;29.29;32.05;95908.41;5012576;28;20208;-34
2022/05/28 11:38:15;;;;;;;12.23;2.67;;;;;;;29.28;31.78;95903.38;5029150;28;20533;-34
2022/05/28 11:41:03;;;;;;;7.82;2.83;;;;;;;29.28;32.17;95897.81;5028947;28;20037;-34
2022/05/28 11:43:39;;;;;;;6.63;2.50;;;;;;;29.29;32.17;95894.44;5029256;28;20089;-34
2022/05/28 11:46:18;;;;;;;8.32;2.75;;;;;;;29.20;30.67;95888.69;5029165;28;20133;-34
2022/05/28 11:51:46;;;;;;;9.70;3.55;;;;;;;29.18;32.11;95891.31;5111996;28;20084;-35
2022/05/28 11:54:27;;;;;;;7.57;3.00;;;;;;;29.20;32.07;95885.91;5112048;28;20034;-35
2022/05/28 11:57:01;;;;;;;8.40;2.80;;;;;;;29.30;32.18;95881.22;5110046;28;20080;-34